Time;durP1;ratioP1;P1;durP2;ratioP2;P2;SDS_P1;SDS_P2;PMS_P1;PMS_P2;Temp;Humidity;BMP_temperature;BMP_pressure;BME280_temperature;BME280_humidity;BME280_pressure;Samples;Min_cycle;Max_cycle;Signal;HPM_P1;HPM_P2
2023/03/12 00:01:58;;;;;;;0.10;0.10;;;0.20;99.90;;;;;;5021344;28;20192;-83
2023/03/12 00:04:24;;;;;;;0.10;0.10;;;0.30;99.90;;;;;;5041191;28;20197;-85
2023/03/12 00:06:50;;;;;;;0.10;0.10;;;0.40;99.90;;;;;;5024953;28;20260;-85
2023/03/12 00:09:16;;;;;;;0.10;0.10;;;0.50;99.90;;;;;;5024261;28;20255;-83
2023/03/12 00:11:42;;;;;;;0.10;0.10;;;0.50;99.90;;;;;;5021555;28;20280;-85
2023/03/12 00:14:08;;;;;;;0.10;0.10;;;0.70;99.90;;;;;;5021469;28;20217;-84
2023/03/12 00:16:33;;;;;;;0.10;0.10;;;0.80;99.90;;;;;;5020718;28;20186;-85
2023/03/12 00:18:59;;;;;;;0.10;0.10;;;0.90;99.90;;;;;;5021216;28;20275;-84
2023/03/12 00:21:25;;;;;;;0.10;0.10;;;0.90;99.90;;;;;;5037015;28;20195;-84
2023/03/12 00:23:51;;;;;;;0.10;0.10;;;1.00;99.90;;;;;;5020072;28;20196;-84
2023/03/12 00:26:18;;;;;;;0.10;0.10;;;1.10;99.90;;;;;;5021516;28;20186;-85
2023/03/12 00:28:45;;;;;;;0.10;0.10;;;1.20;99.90;;;;;;5038558;28;20220;-84
2023/03/12 00:31:31;;;;;;;0.10;0.10;;;1.30;99.90;;;;;;5019686;28;20189;-83
2023/03/12 00:33:58;;;;;;;0.10;0.10;;;1.30;99.90;;;;;;5037449;28;20188;-85
2023/03/12 00:36:27;;;;;;;0.00;0.00;;;1.20;99.90;;;;;;5037536;28;20193;-84
2023/03/12 00:38:53;;;;;;;0.10;0.10;;;0.90;99.90;;;;;;5020731;28;20746;-83
2023/03/12 00:41:19;;;;;;;0.10;0.10;;;0.70;99.90;;;;;;5029617;28;20201;-84
2023/03/12 00:43:46;;;;;;;0.10;0.10;;;0.60;99.90;;;;;;5022027;28;20181;-84
2023/03/12 00:46:11;;;;;;;0.10;0.10;;;0.60;99.90;;;;;;5018392;28;20191;-83
2023/03/12 00:48:37;;;;;;;0.10;0.10;;;0.60;99.90;;;;;;5019853;28;20316;-85
2023/03/12 00:51:03;;;;;;;0.10;0.10;;;0.60;99.90;;;;;;5036265;28;20292;-84
2023/03/12 00:53:28;;;;;;;0.10;0.10;;;0.70;99.90;;;;;;5019125;28;20534;-85
2023/03/12 00:55:54;;;;;;;0.03;0.03;;;0.80;99.90;;;;;;5019017;28;20193;-84
2023/03/12 00:58:19;;;;;;;0.10;0.10;;;0.90;99.90;;;;;;5038167;28;20220;-85
2023/03/12 01:00:45;;;;;;;0.10;0.10;;;0.90;99.90;;;;;;5035144;28;20194;-84
2023/03/12 01:03:10;;;;;;;0.10;0.10;;;0.90;99.90;;;;;;5036956;28;20190;-84
2023/03/12 01:05:36;;;;;;;0.10;0.10;;;1.00;99.90;;;;;;5021635;28;20711;-84
2023/03/12 01:08:09;;;;;;;0.10;0.10;;;1.10;99.90;;;;;;5038214;28;20229;-84
2023/03/12 01:10:36;;;;;;;0.10;0.10;;;1.30;99.90;;;;;;5036395;28;20271;-84
2023/03/12 01:13:02;;;;;;;0.10;0.10;;;1.40;99.90;;;;;;5020073;28;20248;-84
2023/03/12 01:15:28;;;;;;;0.00;0.00;;;1.60;99.90;;;;;;5020025;28;20537;-85
2023/03/12 01:17:54;;;;;;;0.10;0.10;;;1.60;99.90;;;;;;5018762;28;20209;-84
2023/03/12 01:20:21;;;;;;;0.10;0.10;;;1.60;99.90;;;;;;5019207;28;20199;-83
2023/03/12 01:22:47;;;;;;;0.10;0.10;;;1.70;99.90;;;;;;5019705;28;20197;-83
2023/03/12 01:25:13;;;;;;;0.10;0.10;;;1.70;99.90;;;;;;5026010;28;20197;-85
2023/03/12 01:27:38;;;;;;;0.10;0.10;;;1.80;99.90;;;;;;5036769;28;20225;-86
2023/03/12 01:30:05;;;;;;;0.00;0.00;;;1.80;99.90;;;;;;5041205;28;20208;-85
2023/03/12 01:32:30;;;;;;;0.10;0.10;;;1.60;99.90;;;;;;5037271;28;20201;-85
2023/03/12 01:34:57;;;;;;;0.10;0.10;;;1.30;99.90;;;;;;5037601;28;20250;-85
2023/03/12 01:37:23;;;;;;;0.10;0.10;;;1.30;99.90;;;;;;5055708;28;20224;-86
2023/03/12 01:39:48;;;;;;;0.10;0.10;;;1.40;99.90;;;;;;5032410;28;20254;-84
2023/03/12 01:42:14;;;;;;;0.10;0.10;;;1.50;99.90;;;;;;5024227;28;20682;-84
2023/03/12 01:44:59;;;;;;;0.10;0.10;;;1.50;99.90;;;;;;5027210;28;20405;-84
2023/03/12 01:47:26;;;;;;;0.10;0.10;;;1.30;99.90;;;;;;5036855;28;20221;-83
2023/03/12 01:49:54;;;;;;;0.10;0.10;;;1.30;99.90;;;;;;5027028;28;20185;-85
2023/03/12 01:52:24;;;;;;;0.10;0.10;;;1.40;99.90;;;;;;5045570;28;20257;-84
2023/03/12 01:55:08;;;;;;;0.10;0.10;;;1.50;99.90;;;;;;5028684;28;20184;-83
2023/03/12 01:57:39;;;;;;;0.10;0.10;;;1.70;99.90;;;;;;5026617;28;20280;-82
2023/03/12 02:00:19;;;;;;;0.10;0.10;;;1.80;99.90;;;;;;5023603;28;20607;-83
2023/03/12 02:02:46;;;;;;;0.10;0.10;;;1.90;99.90;;;;;;5045306;28;20186;-84
2023/03/12 02:05:26;;;;;;;0.10;0.10;;;2.00;99.90;;;;;;5028541;28;20293;-84
2023/03/12 02:07:52;;;;;;;0.10;0.10;;;1.80;99.90;;;;;;5040822;28;20237;-85
2023/03/12 02:10:18;;;;;;;0.10;0.10;;;2.00;99.90;;;;;;5057892;28;20193;-85
2023/03/12 02:12:44;;;;;;;0.10;0.10;;;2.10;99.90;;;;;;5055244;28;20188;-85
2023/03/12 02:15:10;;;;;;;0.10;0.10;;;2.10;99.90;;;;;;5059159;28;20190;-85
2023/03/12 02:17:38;;;;;;;0.10;0.10;;;2.00;99.90;;;;;;5030349;28;20281;-86
2023/03/12 02:20:31;;;;;;;0.10;0.10;;;1.70;99.90;;;;;;5044781;28;20207;-83
2023/03/12 02:23:12;;;;;;;0.10;0.10;;;1.50;99.90;;;;;;5043788;28;20211;-84
2023/03/12 02:25:48;;;;;;;0.10;0.10;;;1.50;99.90;;;;;;5023587;28;20197;-84
2023/03/12 02:28:17;;;;;;;0.03;0.03;;;1.20;99.90;;;;;;5022966;28;20971;-84
2023/03/12 02:30:46;;;;;;;0.10;0.10;;;1.30;99.90;;;;;;5023859;28;20293;-85
2023/03/12 02:33:14;;;;;;;0.10;0.10;;;1.20;99.90;;;;;;5023995;28;20219;-84
2023/03/12 02:35:39;;;;;;;0.00;0.00;;;1.20;99.90;;;;;;5043464;28;20195;-84
2023/03/12 02:38:32;;;;;;;0.00;0.00;;;1.40;99.90;;;;;;5032239;28;20213;-84
2023/03/12 02:41:02;;;;;;;0.10;0.10;;;1.40;99.90;;;;;;5043145;28;20242;-85
2023/03/12 02:43:28;;;;;;;0.00;0.00;;;1.30;99.90;;;;;;5023259;28;20202;-85
2023/03/12 02:45:55;;;;;;;0.10;0.10;;;1.40;99.90;;;;;;5025160;28;20193;-83
2023/03/12 02:48:20;;;;;;;0.10;0.10;;;1.40;99.90;;;;;;5024082;28;20221;-84
2023/03/12 02:50:46;;;;;;;0.10;0.10;;;1.50;99.90;;;;;;5042292;28;20198;-85
2023/03/12 02:53:11;;;;;;;0.10;0.10;;;1.60;99.90;;;;;;5024648;28;20293;-85
2023/03/12 02:55:37;;;;;;;0.10;0.10;;;1.80;99.90;;;;;;5025053;28;20214;-85
2023/03/12 02:58:03;;;;;;;0.03;0.03;;;1.90;99.90;;;;;;5044069;28;20229;-83
2023/03/12 03:00:31;;;;;;;0.10;0.10;;;2.00;99.90;;;;;;5044359;28;20244;-84
2023/03/12 03:03:00;;;;;;;0.10;0.10;;;2.10;99.90;;;;;;5042824;28;20227;-84
2023/03/12 03:05:26;;;;;;;0.03;0.03;;;2.20;99.90;;;;;;5025237;28;20686;-85
2023/03/12 03:07:52;;;;;;;0.10;0.10;;;2.30;99.90;;;;;;5023464;28;20218;-84
2023/03/12 03:10:17;;;;;;;0.10;0.10;;;2.30;99.90;;;;;;5023261;28;20274;-84
2023/03/12 03:12:43;;;;;;;0.10;0.10;;;2.10;99.90;;;;;;5023379;28;20189;-84
2023/03/12 03:15:10;;;;;;;0.10;0.10;;;2.10;99.90;;;;;;5021072;28;20189;-84
2023/03/12 03:17:35;;;;;;;0.03;0.03;;;2.20;99.90;;;;;;5023029;28;20240;-85
2023/03/12 03:20:05;;;;;;;0.10;0.10;;;2.00;99.90;;;;;;5021204;28;20282;-84
2023/03/12 03:22:31;;;;;;;0.10;0.10;;;1.60;99.90;;;;;;5022440;28;21235;-84
2023/03/12 03:24:56;;;;;;;0.10;0.10;;;1.30;99.90;;;;;;5021957;28;20201;-84
2023/03/12 03:27:22;;;;;;;0.10;0.10;;;1.50;99.90;;;;;;5023314;28;20271;-85
2023/03/12 03:29:47;;;;;;;0.10;0.10;;;1.60;99.90;;;;;;5039307;28;20185;-84
2023/03/12 03:32:13;;;;;;;0.10;0.10;;;1.80;99.90;;;;;;5023039;28;20190;-84
2023/03/12 03:34:39;;;;;;;0.03;0.03;;;2.00;99.90;;;;;;5022990;28;20236;-85
2023/03/12 03:37:04;;;;;;;0.10;0.10;;;2.10;99.90;;;;;;5037795;28;20561;-84
2023/03/12 03:39:30;;;;;;;0.10;0.10;;;2.20;99.90;;;;;;5021593;28;20249;-84
2023/03/12 03:41:55;;;;;;;0.10;0.10;;;2.20;99.90;;;;;;5022976;28;20661;-83
2023/03/12 03:44:21;;;;;;;0.10;0.10;;;2.20;99.90;;;;;;5041206;28;20553;-84
2023/03/12 03:46:48;;;;;;;0.10;0.10;;;2.30;99.90;;;;;;5019191;28;20267;-84
2023/03/12 03:49:14;;;;;;;0.10;0.10;;;2.30;99.90;;;;;;5022684;28;20280;-84
2023/03/12 03:51:41;;;;;;;0.10;0.10;;;2.20;99.90;;;;;;5021830;28;20228;-83
2023/03/12 03:54:07;;;;;;;0.10;0.10;;;2.10;99.90;;;;;;5024736;28;20650;-85
2023/03/12 03:56:33;;;;;;;0.10;0.10;;;2.20;99.90;;;;;;5022678;28;20185;-84
2023/03/12 03:58:58;;;;;;;0.10;0.10;;;2.20;99.90;;;;;;5022160;28;20282;-85
2023/03/12 04:01:24;;;;;;;0.10;0.10;;;1.80;99.90;;;;;;5020287;28;20212;-85
2023/03/12 04:03:49;;;;;;;0.10;0.10;;;1.90;99.90;;;;;;5021914;28;20189;-84
2023/03/12 04:06:15;;;;;;;0.10;0.10;;;2.00;99.90;;;;;;5021703;28;20191;-85
2023/03/12 04:08:40;;;;;;;0.10;0.10;;;2.20;99.90;;;;;;5039183;28;20857;-83
2023/03/12 04:11:14;;;;;;;0.10;0.10;;;2.00;99.90;;;;;;5022035;28;20218;-84
2023/03/12 04:13:40;;;;;;;0.03;0.03;;;1.60;99.90;;;;;;5020088;28;20188;-84
2023/03/12 04:16:06;;;;;;;0.10;0.10;;;1.50;99.90;;;;;;5020712;28;20191;-85
2023/03/12 04:18:32;;;;;;;0.10;0.10;;;1.60;99.90;;;;;;5019406;28;20230;-85
2023/03/12 04:20:58;;;;;;;0.10;0.10;;;1.80;99.90;;;;;;5037432;28;20643;-83
2023/03/12 04:23:23;;;;;;;0.10;0.10;;;1.40;99.90;;;;;;5019144;28;20189;-85
2023/03/12 04:25:49;;;;;;;0.10;0.10;;;1.10;99.90;;;;;;5019933;28;20215;-84
2023/03/12 04:28:14;;;;;;;0.10;0.10;;;1.20;99.90;;;;;;5018773;28;20217;-85
2023/03/12 04:30:40;;;;;;;0.10;0.10;;;1.30;99.90;;;;;;5020577;28;20193;-83
2023/03/12 04:33:06;;;;;;;0.10;0.10;;;1.20;99.90;;;;;;5018665;28;20565;-83
2023/03/12 04:35:32;;;;;;;0.10;0.10;;;1.10;99.90;;;;;;5018890;28;20663;-85
2023/03/12 04:38:00;;;;;;;0.10;0.10;;;1.00;99.90;;;;;;5016290;28;20225;-83
2023/03/12 04:40:25;;;;;;;0.10;0.10;;;0.90;99.90;;;;;;5035755;28;20195;-84
2023/03/12 04:42:51;;;;;;;0.10;0.10;;;0.90;99.90;;;;;;5016792;28;20563;-84
2023/03/12 04:45:17;;;;;;;0.00;0.00;;;1.00;99.90;;;;;;5018017;28;20220;-84
2023/03/12 04:47:42;;;;;;;0.10;0.10;;;1.00;99.90;;;;;;5015590;28;20238;-85
2023/03/12 04:50:08;;;;;;;0.10;0.10;;;1.00;99.90;;;;;;5017600;28;20189;-84
2023/03/12 04:52:34;;;;;;;0.10;0.10;;;1.00;99.90;;;;;;5033168;28;20236;-84
2023/03/12 04:55:00;;;;;;;0.10;0.10;;;1.30;99.90;;;;;;5017850;28;20272;-84
2023/03/12 04:57:25;;;;;;;0.10;0.10;;;1.20;99.90;;;;;;5017006;28;20212;-85
2023/03/12 04:59:51;;;;;;;0.10;0.10;;;1.10;99.90;;;;;;5033754;28;20196;-85
2023/03/12 05:02:17;;;;;;;0.10;0.10;;;1.20;99.90;;;;;;5016904;28;20205;-84
2023/03/12 05:04:42;;;;;;;0.10;0.10;;;1.10;99.90;;;;;;5016462;28;20887;-84
2023/03/12 05:07:08;;;;;;;0.10;0.10;;;1.20;99.90;;;;;;5018708;28;20671;-84
2023/03/12 05:09:33;;;;;;;0.10;0.10;;;1.20;99.90;;;;;;5015919;28;20658;-84
2023/03/12 05:11:59;;;;;;;0.10;0.10;;;1.30;99.90;;;;;;5022848;28;20186;-84
2023/03/12 05:14:24;;;;;;;0.10;0.10;;;1.60;99.90;;;;;;5022149;28;20180;-85
2023/03/12 05:16:50;;;;;;;0.10;0.10;;;1.90;99.90;;;;;;5041664;28;20271;-83
2023/03/12 05:19:15;;;;;;;0.10;0.10;;;2.00;99.90;;;;;;5024110;28;20757;-84
2023/03/12 05:21:41;;;;;;;0.10;0.10;;;2.10;99.90;;;;;;5040265;28;20724;-83
2023/03/12 05:24:08;;;;;;;0.10;0.10;;;2.10;99.90;;;;;;5023899;28;20862;-83
2023/03/12 05:26:34;;;;;;;0.10;0.10;;;2.00;99.90;;;;;;5041545;28;20208;-84
2023/03/12 05:29:00;;;;;;;0.10;0.10;;;1.90;99.90;;;;;;5032409;28;21355;-84
2023/03/12 05:31:27;;;;;;;0.10;0.10;;;1.70;99.90;;;;;;5023782;28;20193;-84
2023/03/12 05:33:53;;;;;;;0.10;0.10;;;1.70;99.90;;;;;;5042260;28;20235;-84
2023/03/12 05:36:19;;;;;;;0.10;0.10;;;2.00;99.90;;;;;;5025169;28;20196;-83
2023/03/12 05:38:45;;;;;;;0.10;0.10;;;2.30;99.90;;;;;;5041130;28;20213;-84
2023/03/12 05:41:17;;;;;;;0.10;0.10;;;2.40;99.90;;;;;;5043055;28;20193;-85
2023/03/12 05:43:43;;;;;;;0.10;0.10;;;2.50;99.90;;;;;;5024318;28;20287;-85
2023/03/12 05:46:09;;;;;;;0.10;0.10;;;2.10;99.90;;;;;;5024989;28;20287;-85
2023/03/12 05:48:35;;;;;;;0.10;0.10;;;1.80;99.90;;;;;;5032146;28;20213;-84
2023/03/12 05:51:00;;;;;;;0.10;0.10;;;1.60;99.90;;;;;;5038681;28;20263;-84
2023/03/12 05:53:26;;;;;;;0.00;0.00;;;1.60;99.90;;;;;;5042011;28;20663;-84
2023/03/12 05:55:51;;;;;;;0.10;0.10;;;1.80;99.90;;;;;;5023902;28;20525;-84
2023/03/12 05:58:17;;;;;;;0.10;0.10;;;1.70;99.90;;;;;;5024915;28;20562;-85
2023/03/12 06:00:44;;;;;;;0.10;0.10;;;1.60;99.90;;;;;;5045154;28;20195;-85
2023/03/12 06:03:10;;;;;;;0.10;0.10;;;1.40;99.90;;;;;;5045041;28;20191;-84
2023/03/12 06:05:36;;;;;;;0.10;0.10;;;1.30;99.90;;;;;;5022604;28;20641;-85
2023/03/12 06:08:02;;;;;;;0.10;0.10;;;1.40;99.90;;;;;;5042393;28;20210;-84
2023/03/12 06:10:29;;;;;;;0.10;0.10;;;1.40;99.90;;;;;;5026332;28;20202;-84
2023/03/12 06:12:55;;;;;;;0.10;0.10;;;1.30;99.90;;;;;;5024947;28;20192;-84
2023/03/12 06:15:21;;;;;;;0.10;0.10;;;1.40;99.90;;;;;;5040973;28;20248;-86
2023/03/12 06:17:47;;;;;;;0.10;0.10;;;1.30;99.90;;;;;;5022991;28;20288;-84
2023/03/12 06:20:12;;;;;;;0.10;0.10;;;1.50;99.90;;;;;;5021795;28;20196;-84
2023/03/12 06:22:38;;;;;;;0.10;0.10;;;1.50;99.90;;;;;;5021492;28;20983;-85
2023/03/12 06:25:04;;;;;;;0.10;0.10;;;1.60;99.90;;;;;;5038792;28;20207;-85
2023/03/12 06:27:30;;;;;;;0.10;0.10;;;1.80;99.90;;;;;;5017152;28;20223;-85
2023/03/12 06:29:56;;;;;;;0.10;0.10;;;1.70;99.90;;;;;;5020525;28;20184;-84
2023/03/12 06:32:21;;;;;;;0.23;0.23;;;1.80;99.90;;;;;;5038659;28;20241;-84
2023/03/12 06:34:47;;;;;;;0.10;0.10;;;2.00;99.90;;;;;;5023185;28;21119;-85
2023/03/12 06:37:12;;;;;;;0.10;0.10;;;1.90;99.90;;;;;;5025418;28;20284;-85
2023/03/12 06:39:39;;;;;;;0.10;0.10;;;2.10;99.90;;;;;;5038271;28;20261;-85
2023/03/12 06:42:05;;;;;;;0.03;0.03;;;2.10;99.90;;;;;;5022600;28;20189;-84
2023/03/12 06:44:31;;;;;;;0.10;0.10;;;2.30;99.90;;;;;;5025725;28;20194;-85
2023/03/12 06:46:57;;;;;;;0.10;0.10;;;2.60;99.90;;;;;;5025478;28;20196;-85
2023/03/12 06:49:23;;;;;;;0.10;0.10;;;2.80;99.90;;;;;;5024534;28;20350;-84
2023/03/12 06:51:48;;;;;;;0.10;0.10;;;3.00;99.90;;;;;;5025685;28;20208;-83
2023/03/12 06:54:14;;;;;;;0.10;0.10;;;3.20;99.90;;;;;;5023726;28;20190;-83
2023/03/12 06:56:39;;;;;;;0.10;0.10;;;3.20;99.90;;;;;;5019039;28;20284;-85
2023/03/12 06:59:05;;;;;;;0.10;0.10;;;3.20;99.90;;;;;;5020013;28;20194;-85
2023/03/12 07:01:32;;;;;;;0.10;0.10;;;3.30;99.90;;;;;;5032897;28;20193;-85
2023/03/12 07:03:57;;;;;;;0.10;0.10;;;3.20;99.90;;;;;;5017803;28;20201;-85
2023/03/12 07:06:23;;;;;;;0.10;0.10;;;3.20;99.90;;;;;;5020784;28;20193;-84
2023/03/12 07:08:49;;;;;;;0.10;0.10;;;2.60;99.90;;;;;;5039482;28;20252;-85
2023/03/12 07:11:16;;;;;;;0.10;0.10;;;2.70;99.90;;;;;;5040868;28;20197;-85
2023/03/12 07:13:43;;;;;;;0.10;0.10;;;2.40;99.90;;;;;;5035369;28;20201;-84
2023/03/12 07:16:09;;;;;;;0.10;0.10;;;1.90;99.90;;;;;;5040305;28;20197;-84
2023/03/12 07:18:35;;;;;;;0.03;0.03;;;1.40;99.90;;;;;;5040251;28;20220;-84
2023/03/12 07:21:01;;;;;;;0.00;0.00;;;1.50;99.90;;;;;;5023205;28;20194;-85
2023/03/12 07:23:27;;;;;;;0.10;0.10;;;1.80;99.90;;;;;;5022054;28;20190;-85
2023/03/12 07:25:52;;;;;;;0.10;0.10;;;2.10;99.90;;;;;;5023104;28;20748;-84
2023/03/12 07:28:19;;;;;;;0.10;0.10;;;2.10;99.90;;;;;;5041304;28;20216;-84
2023/03/12 07:30:52;;;;;;;0.10;0.10;;;2.30;99.90;;;;;;5023506;28;20185;-85
2023/03/12 07:33:19;;;;;;;0.10;0.10;;;2.20;99.90;;;;;;5023054;28;20212;-85
2023/03/12 07:35:46;;;;;;;0.10;0.10;;;2.20;99.90;;;;;;5047739;28;20188;-84
2023/03/12 07:38:12;;;;;;;0.10;0.10;;;2.00;99.90;;;;;;5034294;28;20233;-84
2023/03/12 07:40:37;;;;;;;0.10;0.10;;;1.70;99.90;;;;;;5047648;28;20196;-84
2023/03/12 07:43:05;;;;;;;0.10;0.10;;;1.40;99.90;;;;;;5027181;28;20182;-84
2023/03/12 07:45:31;;;;;;;0.10;0.10;;;1.20;99.90;;;;;;5034211;28;20180;-84
2023/03/12 07:47:57;;;;;;;0.00;0.00;;;1.30;99.90;;;;;;5024331;28;20720;-85
2023/03/12 07:50:23;;;;;;;0.10;0.10;;;1.40;99.90;;;;;;5023389;28;20217;-85
2023/03/12 07:52:49;;;;;;;0.10;0.10;;;1.80;99.90;;;;;;5041787;28;20203;-85
2023/03/12 07:55:15;;;;;;;0.10;0.10;;;2.00;99.90;;;;;;5026913;28;20222;-84
2023/03/12 07:57:41;;;;;;;0.10;0.10;;;2.20;99.90;;;;;;5021227;28;20240;-85
2023/03/12 08:00:09;;;;;;;0.10;0.10;;;2.30;99.90;;;;;;5043133;28;20201;-85
2023/03/12 08:02:34;;;;;;;0.10;0.10;;;2.50;99.90;;;;;;5023640;28;20234;-82
2023/03/12 08:05:00;;;;;;;0.10;0.10;;;2.70;99.90;;;;;;5024796;28;20541;-83
2023/03/12 08:07:30;;;;;;;0.10;0.10;;;2.70;99.90;;;;;;5025673;28;20220;-84
2023/03/12 08:09:59;;;;;;;0.10;0.10;;;2.70;99.90;;;;;;5025411;28;20182;-83
2023/03/12 08:12:25;;;;;;;0.10;0.10;;;2.80;99.90;;;;;;5022744;28;20293;-82
2023/03/12 08:14:51;;;;;;;0.10;0.10;;;2.50;99.90;;;;;;5024138;28;20197;-84
2023/03/12 08:17:16;;;;;;;0.10;0.10;;;2.30;99.90;;;;;;5024342;28;20730;-84
2023/03/12 08:19:42;;;;;;;0.10;0.10;;;1.80;99.90;;;;;;5043915;28;20212;-83
2023/03/12 08:22:07;;;;;;;0.10;0.10;;;1.80;99.90;;;;;;5026534;28;20191;-86
2023/03/12 08:24:33;;;;;;;0.10;0.10;;;1.90;99.90;;;;;;5024611;28;20193;-84
2023/03/12 08:26:59;;;;;;;0.10;0.10;;;1.80;99.90;;;;;;5039427;28;20243;-84
2023/03/12 08:29:25;;;;;;;0.10;0.10;;;1.80;99.90;;;;;;5023735;28;20205;-85
2023/03/12 08:31:50;;;;;;;0.10;0.10;;;1.80;99.90;;;;;;5019793;28;20185;-85
2023/03/12 08:34:16;;;;;;;0.10;0.10;;;1.70;99.90;;;;;;5023665;28;20201;-84
2023/03/12 08:36:41;;;;;;;0.10;0.10;;;2.10;99.90;;;;;;5024892;28;20187;-84
2023/03/12 08:39:07;;;;;;;0.10;0.10;;;2.40;99.90;;;;;;5043326;28;20188;-84
2023/03/12 08:41:32;;;;;;;0.00;0.00;;;2.80;99.90;;;;;;5021756;28;20194;-85
2023/03/12 08:43:58;;;;;;;0.10;0.10;;;2.90;99.90;;;;;;5023103;28;20521;-84
2023/03/12 08:46:23;;;;;;;0.10;0.10;;;2.90;99.90;;;;;;5022979;28;20190;-84
2023/03/12 08:48:49;;;;;;;0.10;0.10;;;2.70;99.90;;;;;;5021076;28;20300;-84
2023/03/12 08:51:15;;;;;;;0.00;0.00;;;2.50;99.90;;;;;;5040350;28;20205;-83
2023/03/12 08:53:41;;;;;;;0.10;0.10;;;2.60;99.90;;;;;;5019869;28;20228;-84
2023/03/12 08:56:07;;;;;;;0.10;0.10;;;2.60;99.90;;;;;;5036956;28;20190;-83
2023/03/12 08:58:32;;;;;;;0.10;0.10;;;2.50;99.90;;;;;;5028910;28;20233;-82
2023/03/12 09:00:58;;;;;;;0.10;0.10;;;2.30;99.90;;;;;;5041090;28;20229;-82
2023/03/12 09:03:24;;;;;;;0.00;0.00;;;2.60;99.90;;;;;;5041156;28;20188;-82
2023/03/12 09:06:00;;;;;;;0.10;0.10;;;2.70;99.90;;;;;;5041751;28;20184;-82
2023/03/12 09:08:25;;;;;;;0.10;0.10;;;2.80;99.90;;;;;;5043790;28;20216;-82
2023/03/12 09:10:51;;;;;;;0.10;0.10;;;2.50;99.90;;;;;;5024219;28;20196;-83
2023/03/12 09:13:16;;;;;;;0.10;0.10;;;2.80;99.90;;;;;;5023397;28;20186;-83
2023/03/12 09:15:42;;;;;;;0.10;0.10;;;3.00;99.90;;;;;;5019764;28;20205;-84
2023/03/12 09:18:08;;;;;;;0.00;0.00;;;2.70;99.90;;;;;;5017053;28;20223;-84
2023/03/12 09:20:33;;;;;;;0.10;0.10;;;2.60;99.90;;;;;;5032560;28;20203;-84
2023/03/12 09:22:59;;;;;;;0.10;0.10;;;2.90;99.90;;;;;;5036219;28;20622;-85
2023/03/12 09:25:24;;;;;;;0.10;0.10;;;3.20;99.90;;;;;;5018888;28;20799;-84
2023/03/12 09:27:50;;;;;;;0.10;0.10;;;3.50;99.90;;;;;;5015188;28;20217;-83
2023/03/12 09:30:18;;;;;;;0.10;0.10;;;3.80;99.90;;;;;;5017092;28;20201;-83
2023/03/12 09:32:44;;;;;;;0.10;0.10;;;4.00;99.90;;;;;;5026129;28;20332;-82
2023/03/12 09:35:12;;;;;;;0.10;0.10;;;4.10;99.90;;;;;;5034424;28;20190;-83
2023/03/12 09:37:38;;;;;;;0.10;0.10;;;4.30;99.90;;;;;;5009471;28;20216;-83
2023/03/12 09:40:06;;;;;;;0.10;0.10;;;4.50;99.90;;;;;;5034872;28;20203;-83
2023/03/12 09:42:56;;;;;;;0.00;0.00;;;4.70;99.90;;;;;;5016942;28;20192;-84
2023/03/12 09:45:25;;;;;;;0.00;0.00;;;4.60;99.90;;;;;;5012903;28;20248;-83
2023/03/12 09:47:57;;;;;;;0.10;0.10;;;4.70;99.90;;;;;;5044797;28;20217;-82
2023/03/12 09:50:39;;;;;;;0.00;0.00;;;4.50;99.90;;;;;;5021361;28;20194;-83
2023/03/12 09:53:27;;;;;;;0.00;0.00;;;4.50;99.90;;;;;;5018422;28;20210;-84
2023/03/12 09:55:55;;;;;;;0.10;0.10;;;4.50;99.90;;;;;;5019540;28;20221;-83
2023/03/12 09:58:24;;;;;;;0.00;0.00;;;4.50;99.90;;;;;;5025002;28;20226;-82
2023/03/12 10:00:55;;;;;;;0.17;0.17;;;4.60;99.90;;;;;;5035061;28;20182;-85
2023/03/12 10:03:40;;;;;;;0.10;0.10;;;4.70;99.90;;;;;;5041736;28;20178;-86
2023/03/12 10:06:08;;;;;;;0.00;0.00;;;4.70;99.90;;;;;;5037866;28;21121;-86
2023/03/12 10:08:54;;;;;;;0.10;0.10;;;4.60;99.90;;;;;;5038166;28;20214;-86
2023/03/12 10:11:43;;;;;;;0.10;0.10;;;4.60;99.90;;;;;;5022861;28;20531;-86
2023/03/12 10:14:36;;;;;;;0.10;0.10;;;4.60;99.90;;;;;;5054884;28;20190;-84
2023/03/12 10:17:14;;;;;;;0.10;0.10;;;4.50;99.90;;;;;;5038675;28;20248;-84
2023/03/12 10:19:52;;;;;;;0.10;0.10;;;4.40;99.90;;;;;;5030266;28;20182;-85
2023/03/12 10:22:42;;;;;;;0.10;0.10;;;4.40;99.90;;;;;;5032322;28;20204;-84
2023/03/12 10:25:28;;;;;;;0.10;0.10;;;4.50;99.90;;;;;;5026120;28;20479;-83
2023/03/12 10:28:00;;;;;;;0.10;0.10;;;4.60;99.90;;;;;;5044381;28;20352;-85
2023/03/12 10:30:27;;;;;;;0.10;0.10;;;4.70;99.90;;;;;;5028089;28;20278;-84
2023/03/12 10:33:11;;;;;;;0.10;0.10;;;4.90;99.90;;;;;;5027322;28;21207;-85
2023/03/12 10:35:39;;;;;;;0.10;0.10;;;5.10;99.90;;;;;;5026926;28;20657;-84
2023/03/12 10:38:27;;;;;;;0.00;0.00;;;5.40;99.90;;;;;;5030715;28;20245;-83
2023/03/12 10:40:54;;;;;;;0.10;0.10;;;5.40;99.90;;;;;;5027612;28;21103;-85
2023/03/12 10:43:20;;;;;;;0.00;0.00;;;5.40;99.90;;;;;;5029435;28;20186;-84
2023/03/12 10:46:24;;;;;;;0.10;0.10;;;5.50;99.90;;;;;;5046185;28;20660;-85
2023/03/12 10:48:49;;;;;;;0.10;0.10;;;5.60;99.90;;;;;;5035322;28;20210;-85
2023/03/12 10:51:15;;;;;;;0.00;0.00;;;5.70;99.90;;;;;;5063173;28;20221;-85
2023/03/12 10:53:46;;;;;;;0.10;0.10;;;5.80;99.90;;;;;;5040488;28;20190;-85
2023/03/12 10:56:14;;;;;;;0.10;0.10;;;5.90;99.90;;;;;;5040651;28;20186;-85
2023/03/12 10:58:42;;;;;;;0.10;0.10;;;5.70;99.90;;;;;;5049255;28;20272;-85
2023/03/12 11:01:14;;;;;;;0.10;0.10;;;5.70;99.90;;;;;;5028529;28;20254;-83
2023/03/12 11:03:40;;;;;;;0.10;0.10;;;5.80;99.90;;;;;;5044718;28;20195;-85
2023/03/12 11:06:09;;;;;;;0.10;0.10;;;5.70;99.90;;;;;;5039753;28;20201;-84
2023/03/12 11:08:36;;;;;;;0.10;0.10;;;5.90;99.90;;;;;;5041098;28;20530;-85
2023/03/12 11:11:03;;;;;;;0.03;0.03;;;5.90;99.90;;;;;;5041958;28;20183;-85
2023/03/12 11:13:35;;;;;;;0.10;0.10;;;6.00;99.90;;;;;;5025247;28;20240;-85
2023/03/12 11:16:23;;;;;;;0.10;0.10;;;6.00;99.90;;;;;;5045018;28;20192;-84
2023/03/12 11:19:00;;;;;;;0.00;0.00;;;6.00;99.90;;;;;;5024235;28;20209;-84
2023/03/12 11:21:27;;;;;;;0.10;0.10;;;6.10;99.90;;;;;;5024059;28;20774;-84
2023/03/12 11:23:55;;;;;;;0.10;0.10;;;6.30;99.90;;;;;;5026505;28;20187;-85
2023/03/12 11:26:30;;;;;;;0.10;0.10;;;6.50;99.90;;;;;;5029619;28;20567;-86
2023/03/12 11:29:03;;;;;;;0.10;0.10;;;6.50;99.90;;;;;;5048759;28;20217;-85
2023/03/12 11:31:34;;;;;;;0.07;0.07;;;6.40;99.90;;;;;;5032293;28;20189;-84
2023/03/12 11:34:05;;;;;;;0.10;0.10;;;6.30;99.90;;;;;;5041020;28;20176;-84
2023/03/12 11:36:49;;;;;;;0.10;0.10;;;6.10;99.90;;;;;;5041175;28;20186;-85
2023/03/12 11:39:25;;;;;;;0.03;0.03;;;6.10;99.90;;;;;;5022825;28;20195;-85
2023/03/12 11:41:54;;;;;;;0.10;0.10;;;6.20;99.90;;;;;;5041795;28;20190;-85
2023/03/12 11:44:31;;;;;;;0.10;0.10;;;6.20;99.90;;;;;;5041032;28;20203;-85
2023/03/12 11:47:05;;;;;;;0.10;0.10;;;6.20;99.90;;;;;;5021434;28;20217;-84
2023/03/12 11:49:43;;;;;;;0.10;0.10;;;6.10;99.90;;;;;;5037311;28;20270;-84
2023/03/12 11:52:50;;;;;;;0.10;0.10;;;6.20;99.90;;;;;;5021090;28;20205;-84
2023/03/12 11:55:45;;;;;;;0.10;0.10;;;6.40;99.90;;;;;;5022599;28;20242;-85
2023/03/12 11:58:41;;;;;;;0.10;0.10;;;6.50;99.90;;;;;;4992528;28;20222;-85
2023/03/12 12:01:25;;;;;;;0.90;0.90;;;6.30;99.90;;;;;;5025892;28;20259;-84
2023/03/12 12:04:12;;;;;;;0.03;0.03;;;6.60;99.90;;;;;;5018409;28;20759;-85
2023/03/12 12:07:00;;;;;;;0.10;0.10;;;6.90;99.90;;;;;;5023436;28;20225;-85
2023/03/12 12:09:39;;;;;;;0.10;0.10;;;7.20;99.90;;;;;;5020383;28;20270;-84
2023/03/12 12:12:20;;;;;;;0.10;0.10;;;7.40;99.90;;;;;;5036305;28;20181;-84
2023/03/12 12:15:11;;;;;;;0.10;0.10;;;7.40;99.90;;;;;;5040200;28;20186;-87
2023/03/12 12:17:39;;;;;;;0.10;0.10;;;7.60;99.90;;;;;;5033102;28;20205;-85
2023/03/12 12:20:11;;;;;;;0.10;0.10;;;7.70;99.90;;;;;;5020132;28;20519;-86
2023/03/12 12:22:45;;;;;;;0.10;0.10;;;7.80;99.90;;;;;;5017743;28;20248;-85
2023/03/12 12:25:29;;;;;;;0.10;0.10;;;7.80;99.90;;;;;;5018813;28;20220;-84
2023/03/12 12:28:23;;;;;;;0.10;0.10;;;8.00;99.90;;;;;;5020340;28;20260;-84
2023/03/12 12:31:04;;;;;;;0.10;0.10;;;8.10;99.90;;;;;;5028996;28;20279;-85
2023/03/12 12:34:00;;;;;;;0.10;0.10;;;8.10;99.90;;;;;;5037849;28;20184;-85
2023/03/12 12:36:29;;;;;;;0.10;0.10;;;8.10;99.90;;;;;;5017639;28;20207;-86
2023/03/12 12:39:04;;;;;;;0.10;0.10;;;7.90;99.90;;;;;;5035271;28;20227;-86
2023/03/12 12:41:34;;;;;;;0.10;0.10;;;8.00;99.90;;;;;;5022950;28;20186;-84
2023/03/12 12:44:09;;;;;;;0.00;0.00;;;7.80;99.90;;;;;;5014598;28;20596;-86
2023/03/12 12:46:38;;;;;;;0.10;0.10;;;7.80;99.90;;;;;;5025939;28;20458;-84
2023/03/12 12:49:17;;;;;;;0.10;0.10;;;7.80;99.90;;;;;;5017946;28;20729;-85
2023/03/12 12:51:47;;;;;;;0.10;0.10;;;7.80;99.90;;;;;;5038748;28;20439;-85
2023/03/12 12:54:25;;;;;;;0.37;0.37;;;7.80;99.90;;;;;;5016748;28;20188;-85
2023/03/12 12:57:27;;;;;;;0.10;0.10;;;7.90;99.90;;;;;;5020200;28;20711;-83
2023/03/12 13:00:08;;;;;;;0.10;0.10;;;8.00;99.90;;;;;;4978280;28;20200;-85
2023/03/12 13:02:39;;;;;;;0.10;0.10;;;8.00;99.90;;;;;;5021781;28;20181;-83
2023/03/12 13:05:27;;;;;;;0.10;0.10;;;8.00;99.90;;;;;;5023510;28;20192;-85
2023/03/12 13:07:53;;;;;;;0.10;0.10;;;8.10;99.90;;;;;;5020525;28;20217;-84
2023/03/12 13:10:34;;;;;;;0.10;0.10;;;7.60;99.90;;;;;;5021843;28;20260;-84